createdAt,value
2022-12-18T00:01:19.552Z,100697.66
2022-12-18T00:03:47.043Z,100690.97
2022-12-18T00:06:14.836Z,100685.88
2022-12-18T00:08:42.656Z,100682.56
2022-12-18T00:11:12.398Z,100680.78
2022-12-18T00:13:39.503Z,100680.66
2022-12-18T00:16:09.995Z,100682.38
2022-12-18T00:18:37.032Z,100679.03
2022-12-18T00:21:06.966Z,100672.28
2022-12-18T00:23:34.949Z,100681.59
2022-12-18T00:26:03.489Z,100679.75
2022-12-18T00:28:30.125Z,100682.38
2022-12-18T00:31:06.546Z,100689.13
2022-12-18T00:33:33.719Z,100685.66
2022-12-18T00:36:11.850Z,100692.56
2022-12-18T00:38:39.265Z,100691.75
2022-12-18T00:41:08.642Z,100685.00
2022-12-18T00:43:35.815Z,100674.84
2022-12-18T00:46:02.990Z,100675.88
2022-12-18T00:48:29.653Z,100685.19
2022-12-18T00:50:56.235Z,100680.78
2022-12-18T00:53:23.043Z,100687.47
2022-12-18T00:55:49.605Z,100684.84
2022-12-18T00:58:17.869Z,100682.22
2022-12-18T01:00:44.843Z,100670.13
2022-12-18T01:03:14.692Z,100685.22
2022-12-18T01:05:42.654Z,100677.59
2022-12-18T01:08:09.339Z,100673.31
2022-12-18T01:10:35.845Z,100678.38
2022-12-18T01:13:02.397Z,100675.59
2022-12-18T01:15:28.915Z,100672.94
2022-12-18T01:17:55.485Z,100659.22
2022-12-18T01:20:22.087Z,100664.22
2022-12-18T01:22:50.474Z,100655.63
2022-12-18T01:25:19.021Z,100653.88
2022-12-18T01:27:47.124Z,100660.53
2022-12-18T01:30:15.702Z,100656.19
2022-12-18T01:32:43.537Z,100656.84
2022-12-18T01:35:11.746Z,100656.84
2022-12-18T01:37:40.021Z,100651.78
2022-12-18T01:40:09.038Z,100648.28
2022-12-18T01:42:36.987Z,100637.94
2022-12-18T01:47:50.330Z,100653.03
2022-12-18T01:50:24.093Z,100653.72
2022-12-18T01:52:56.633Z,100650.31
2022-12-18T01:55:26.189Z,100640.09
2022-12-18T01:57:55.869Z,100640.75
2022-12-18T02:00:23.951Z,100642.34
2022-12-18T02:02:50.811Z,100635.53
2022-12-18T02:05:30.241Z,100645.69
2022-12-18T02:08:36.481Z,100645.53
2022-12-18T02:20:09.813Z,100656.53
2022-12-18T02:27:51.980Z,100663.03
2022-12-18T02:30:19.740Z,100668.94
2022-12-18T02:32:51.223Z,100670.59
2022-12-18T02:35:23.141Z,100676.28
2022-12-18T02:37:50.766Z,100670.25
2022-12-18T02:40:19.669Z,100679.53
2022-12-18T02:42:46.260Z,100681.97
2022-12-18T02:45:13.377Z,100686.09
2022-12-18T02:47:43.369Z,100689.50
2022-12-18T02:50:42.932Z,100677.59
2022-12-18T03:06:30.010Z,100657.78
2022-12-18T03:09:02.104Z,100653.94
2022-12-18T03:11:54.411Z,100647.66
2022-12-18T03:14:24.748Z,100643.97
2022-12-18T03:16:56.185Z,100640.47
2022-12-18T03:19:26.674Z,100637.84
2022-12-18T03:21:56.964Z,100637.84
2022-12-18T03:24:25.459Z,100640.28
2022-12-18T03:26:55.930Z,100638.53
2022-12-18T03:29:32.237Z,100633.47
2022-12-18T03:32:05.900Z,100628.28
2022-12-18T03:34:35.653Z,100626.63
2022-12-18T03:37:04.153Z,100624.88
2022-12-18T03:39:30.807Z,100612.78
2022-12-18T03:45:20.164Z,100607.38
2022-12-18T03:48:01.603Z,100603.06
2022-12-18T03:50:41.868Z,100595.44
2022-12-18T03:53:20.637Z,100586.88
2022-12-18T03:55:49.004Z,100581.72
2022-12-18T03:58:20.412Z,100580.06
2022-12-18T04:00:51.630Z,100578.47
2022-12-18T04:03:25.318Z,100572.44
2022-12-18T04:05:55.162Z,100573.22
2022-12-18T04:08:22.768Z,100578.28
2022-12-18T04:10:49.432Z,100571.47
2022-12-18T04:13:25.357Z,100574.81
2022-12-18T04:15:52.287Z,100559.56
2022-12-18T04:18:18.877Z,100543.34
2022-12-18T04:20:45.424Z,100550.22
2022-12-18T04:23:12.220Z,100551.06
2022-12-18T04:25:38.793Z,100558.59
2022-12-18T04:28:05.482Z,100556.84
2022-12-18T04:30:32.068Z,100550.78
2022-12-18T04:32:58.731Z,100548.25
2022-12-18T04:35:25.333Z,100552.56
2022-12-18T04:37:51.879Z,100545.72
2022-12-18T04:40:18.493Z,100530.34
2022-12-18T04:42:45.126Z,100528.75
2022-12-18T04:45:11.752Z,100525.41
2022-12-18T04:47:38.354Z,100523.84
2022-12-18T04:50:05.475Z,100525.50
2022-12-18T04:52:32.036Z,100521.94
2022-12-18T04:54:58.690Z,100520.34
2022-12-18T04:57:25.265Z,100516.66
2022-12-18T04:59:51.797Z,100506.53
2022-12-18T05:02:18.495Z,100498.09
2022-12-18T05:04:45.076Z,100490.25
2022-12-18T05:07:11.633Z,100472.88
2022-12-18T05:09:38.247Z,100467.63
2022-12-18T05:12:04.946Z,100466.06
2022-12-18T05:14:31.533Z,100451.00
2022-12-18T05:17:00.991Z,100460.47
2022-12-18T05:19:27.954Z,100445.94
2022-12-18T05:21:54.536Z,100445.75
2022-12-18T05:24:21.110Z,100434.19
2022-12-18T05:26:47.699Z,100429.81
2022-12-18T05:29:14.297Z,100434.00
2022-12-18T05:31:41.135Z,100436.28
2022-12-18T05:34:09.598Z,100447.69
2022-12-18T05:36:37.260Z,100435.44
2022-12-18T05:39:04.225Z,100434.72
2022-12-18T05:41:31.173Z,100435.25
2022-12-18T05:43:57.811Z,100440.25
2022-12-18T05:46:25.332Z,100445.41
2022-12-18T05:48:52.232Z,100451.28
2022-12-18T05:51:21.943Z,100457.34
2022-12-18T05:53:49.360Z,100450.66
2022-12-18T05:56:18.653Z,100447.34
2022-12-18T05:58:45.559Z,100439.03
2022-12-18T06:01:16.908Z,100432.44
2022-12-18T06:03:44.289Z,100441.03
2022-12-18T06:06:20.298Z,100441.88
2022-12-18T06:08:47.633Z,100442.94
2022-12-18T06:11:17.668Z,100435.47
2022-12-18T06:13:44.229Z,100428.19
2022-12-18T06:16:11.608Z,100423.13
2022-12-18T06:18:38.243Z,100408.50
2022-12-18T06:21:04.965Z,100399.47
2022-12-18T06:23:31.546Z,100409.78
2022-12-18T06:25:58.201Z,100413.31
2022-12-18T06:28:24.831Z,100404.72
2022-12-18T06:30:51.663Z,100403.91
2022-12-18T06:33:18.623Z,100393.91
2022-12-18T06:35:45.223Z,100392.53
2022-12-18T06:38:11.821Z,100390.91
2022-12-18T06:40:40.168Z,100409.50
2022-12-18T06:43:07.296Z,100402.97
2022-12-18T06:45:33.923Z,100412.25
2022-12-18T06:48:00.529Z,100419.97
2022-12-18T06:50:27.207Z,100422.66
2022-12-18T06:52:53.778Z,100414.41
2022-12-18T06:55:20.470Z,100416.19
2022-12-18T06:57:47.022Z,100402.69
2022-12-18T07:00:14.571Z,100400.94
2022-12-18T07:02:41.630Z,100389.09
2022-12-18T07:05:10.968Z,100406.78
2022-12-18T07:07:38.119Z,100393.44
2022-12-18T07:10:05.282Z,100385.84
2022-12-18T07:12:31.893Z,100389.50
2022-12-18T07:14:58.438Z,100379.91
2022-12-18T07:17:25.017Z,100383.28
2022-12-18T07:19:51.557Z,100363.94
2022-12-18T07:22:18.094Z,100348.03
2022-12-18T07:24:44.682Z,100337.00
2022-12-18T07:27:11.220Z,100347.06
2022-12-18T07:29:37.792Z,100340.41
2022-12-18T07:32:05.018Z,100337.06
2022-12-18T07:34:31.639Z,100343.91
2022-12-18T07:36:58.225Z,100354.22
2022-12-18T07:39:24.763Z,100350.81
2022-12-18T07:42:11.253Z,100354.22
2022-12-18T07:44:38.307Z,100350.97
2022-12-18T07:47:09.153Z,100347.72
2022-12-18T07:49:38.604Z,100346.69
2022-12-18T07:52:05.347Z,100363.81
2022-12-18T07:54:31.961Z,100364.00
2022-12-18T07:56:58.504Z,100364.16
2022-12-18T07:59:25.048Z,100373.59
2022-12-18T08:01:51.717Z,100380.56
2022-12-18T08:04:18.537Z,100389.00
2022-12-18T08:06:48.003Z,100378.28
2022-12-18T08:09:15.321Z,100375.66
2022-12-18T08:11:41.937Z,100366.28
2022-12-18T08:14:08.572Z,100371.22
2022-12-18T08:16:35.164Z,100370.41
2022-12-18T08:19:01.749Z,100363.75
2022-12-18T08:21:30.487Z,100372.31
2022-12-18T08:24:00.778Z,100372.16
2022-12-18T08:26:30.479Z,100376.66
2022-12-18T08:28:58.243Z,100361.41
2022-12-18T08:31:25.872Z,100367.38
2022-12-18T08:33:54.089Z,100358.50
2022-12-18T08:36:22.802Z,100371.56
2022-12-18T08:38:49.868Z,100366.97
2022-12-18T08:41:17.910Z,100377.06
2022-12-18T08:44:04.477Z,100377.22
2022-12-18T08:46:40.586Z,100365.44
2022-12-18T08:49:08.488Z,100351.22
2022-12-18T08:51:35.527Z,100325.88
2022-12-18T08:54:02.810Z,100332.84
2022-12-18T08:56:31.263Z,100346.06
2022-12-18T08:58:58.313Z,100321.88
2022-12-18T09:01:25.433Z,100307.53
2022-12-18T09:03:52.359Z,100315.41
2022-12-18T09:06:20.881Z,100308.16
2022-12-18T09:08:48.167Z,100295.44
2022-12-18T09:11:21.568Z,100326.72
2022-12-18T09:13:48.142Z,100300.13
2022-12-18T09:16:14.835Z,100312.13
2022-12-18T09:18:42.000Z,100297.06
2022-12-18T09:21:13.401Z,100296.28
2022-12-18T09:23:40.010Z,100296.94
2022-12-18T09:26:06.951Z,100278.47
2022-12-18T09:28:33.820Z,100274.09
2022-12-18T09:31:04.254Z,100313.97
2022-12-18T09:33:30.839Z,100311.84
2022-12-18T09:35:57.957Z,100305.94
2022-12-18T09:38:24.604Z,100304.59
2022-12-18T09:40:54.748Z,100293.78
2022-12-18T09:43:31.081Z,100294.72
2022-12-18T09:46:04.262Z,100294.00
2022-12-18T09:48:35.994Z,100293.25
2022-12-18T09:51:14.519Z,100300.88
2022-12-18T09:53:43.738Z,100294.06
2022-12-18T09:56:17.581Z,100291.66
2022-12-18T09:58:54.450Z,100280.44
2022-12-18T10:01:24.198Z,100272.63
2022-12-18T10:03:53.030Z,100265.31
2022-12-18T10:09:29.584Z,100250.94
2022-12-18T10:20:30.795Z,100227.94
2022-12-18T10:25:52.840Z,100207.97
2022-12-18T10:28:20.722Z,100202.03
2022-12-18T10:30:47.850Z,100196.13
2022-12-18T10:33:18.637Z,100189.38
2022-12-18T10:35:46.712Z,100186.63
2022-12-18T10:43:34.245Z,100176.63
2022-12-18T10:46:12.822Z,100165.44
2022-12-18T10:51:35.270Z,100147.03
2022-12-18T10:54:06.237Z,100146.53
2022-12-18T10:56:36.918Z,100159.19
2022-12-18T10:59:07.387Z,100150.81
2022-12-18T11:04:29.217Z,100126.28
2022-12-18T11:07:09.231Z,100117.72
2022-12-18T11:09:38.285Z,100102.44
2022-12-18T11:12:16.112Z,100097.47
2022-12-18T11:17:26.265Z,100094.09
2022-12-18T11:19:55.589Z,100089.16
2022-12-18T11:22:28.627Z,100085.06
2022-12-18T11:27:34.684Z,100066.28
2022-12-18T11:30:21.930Z,100063.81
2022-12-18T11:32:52.048Z,100051.75
2022-12-18T11:35:24.585Z,100054.31
2022-12-18T11:37:59.164Z,100034.75
2022-12-18T11:40:40.851Z,100037.38
2022-12-18T11:45:52.919Z,100024.56
2022-12-18T11:51:03.758Z,100012.63
2022-12-18T11:53:31.389Z,100000.00
2022-12-18T11:56:36.090Z,100008.53
2022-12-18T12:13:23.056Z,99978.81
2022-12-18T12:21:34.449Z,99959.31
2022-12-18T12:35:19.071Z,99915.16
2022-12-18T12:40:51.140Z,99892.22
2022-12-18T12:46:03.769Z,99872.66
2022-12-18T12:51:17.271Z,99862.47
2022-12-18T12:53:44.295Z,99862.59
2022-12-18T12:56:14.960Z,99859.22
2022-12-18T13:04:11.497Z,99867.19
2022-12-18T13:07:02.353Z,99853.66
2022-12-18T13:12:40.599Z,99842.53
2022-12-18T13:15:23.719Z,99838.31
2022-12-18T13:17:50.716Z,99830.72
2022-12-18T13:20:17.597Z,99841.88
2022-12-18T13:25:39.009Z,99839.50
2022-12-18T13:31:02.454Z,99827.66
2022-12-18T13:36:29.362Z,99807.50
2022-12-18T13:44:40.714Z,99789.81
2022-12-18T13:50:28.560Z,99768.53
2022-12-18T13:52:59.098Z,99757.59
2022-12-18T13:55:26.556Z,99744.88
2022-12-18T13:58:05.085Z,99753.34
2022-12-18T14:00:32.928Z,99740.00
2022-12-18T14:03:00.947Z,99733.97
2022-12-18T14:08:11.212Z,99723.00
2022-12-18T14:10:47.648Z,99722.16
2022-12-18T14:13:29.196Z,99710.25
2022-12-18T14:15:57.410Z,99695.84
2022-12-18T14:18:37.605Z,99699.38
2022-12-18T14:21:05.434Z,99704.50
2022-12-18T14:26:29.928Z,99685.91
2022-12-18T14:28:58.258Z,99708.84
2022-12-18T14:31:28.228Z,99674.97
2022-12-18T14:33:55.531Z,99675.81
2022-12-18T14:36:27.302Z,99679.19
2022-12-18T14:38:56.650Z,99674.19
2022-12-18T14:41:24.426Z,99675.91
2022-12-18T14:43:53.076Z,99672.66
2022-12-18T14:52:17.585Z,99650.94
2022-12-18T14:54:48.220Z,99640.69
2022-12-18T14:57:24.750Z,99635.56
2022-12-18T14:59:52.135Z,99637.31
2022-12-18T15:07:54.730Z,99627.16
2022-12-18T15:10:23.861Z,99620.41
2022-12-18T15:23:28.610Z,99619.16
2022-12-18T15:25:59.980Z,99625.13
2022-12-18T15:33:47.008Z,99598.03
2022-12-18T15:36:18.993Z,99594.59
2022-12-18T15:38:56.177Z,99581.06
2022-12-18T15:41:36.089Z,99586.16
2022-12-18T15:44:04.294Z,99570.91
2022-12-18T15:46:32.087Z,99576.88
2022-12-18T15:49:02.561Z,99568.34
2022-12-18T15:51:32.818Z,99572.66
2022-12-18T15:54:01.783Z,99568.47
2022-12-18T15:56:48.274Z,99558.34
2022-12-18T15:59:17.485Z,99554.97
2022-12-18T16:01:47.152Z,99550.72
2022-12-18T16:04:15.799Z,99553.31
2022-12-18T16:07:12.807Z,99541.47
2022-12-18T16:09:29.432Z,99536.47
2022-12-18T16:11:56.068Z,99551.78
2022-12-18T16:14:25.596Z,99538.25
2022-12-18T16:16:55.690Z,99529.84
2022-12-18T16:19:22.720Z,99535.75
2022-12-18T16:21:52.167Z,99526.56
2022-12-18T16:24:22.867Z,99525.72
2022-12-18T16:26:52.416Z,99528.28
2022-12-18T16:29:20.199Z,99508.69
2022-12-18T16:31:46.952Z,99509.66
2022-12-18T16:34:26.752Z,99496.13
2022-12-18T16:39:37.477Z,99494.56
2022-12-18T16:42:08.452Z,99487.81
2022-12-18T16:44:36.100Z,99486.22
2022-12-18T16:47:03.363Z,99478.56
2022-12-18T16:49:30.544Z,99467.53
2022-12-18T16:51:57.370Z,99476.22
2022-12-18T16:54:24.073Z,99466.84
2022-12-18T16:56:51.618Z,99462.63
2022-12-18T16:59:18.294Z,99445.69
2022-12-18T17:01:45.146Z,99445.78
2022-12-18T17:04:11.945Z,99444.13
2022-12-18T17:06:42.096Z,99433.97
2022-12-18T17:09:12.647Z,99424.69
2022-12-18T17:11:39.197Z,99417.06
2022-12-18T17:14:10.427Z,99409.47
2022-12-18T17:16:37.170Z,99414.66
2022-12-18T17:19:05.439Z,99417.38
2022-12-18T17:21:32.241Z,99421.72
2022-12-18T17:24:01.428Z,99420.97
2022-12-18T17:26:28.416Z,99424.44
2022-12-18T17:28:58.828Z,99407.47
2022-12-18T17:31:29.641Z,99414.38
2022-12-18T17:33:57.506Z,99411.91
2022-12-18T17:36:28.815Z,99406.88
2022-12-18T17:38:57.877Z,99410.44
2022-12-18T17:41:25.540Z,99398.63
2022-12-18T17:46:32.310Z,99386.97
2022-12-18T17:49:00.441Z,99391.38
2022-12-18T17:51:27.772Z,99377.81
2022-12-18T17:53:54.742Z,99386.50
2022-12-18T17:56:23.211Z,99378.06
2022-12-18T17:58:50.738Z,99384.19
2022-12-18T18:01:21.042Z,99387.66
2022-12-18T18:03:48.973Z,99386.91
2022-12-18T18:06:18.823Z,99385.28
2022-12-18T18:08:45.587Z,99374.28
2022-12-18T18:11:35.927Z,99382.88
2022-12-18T18:14:05.289Z,99376.13
2022-12-18T18:19:12.949Z,99361.78
2022-12-18T18:21:41.790Z,99357.59
2022-12-18T18:24:10.298Z,99355.97
2022-12-18T18:26:38.444Z,99356.88
2022-12-18T18:29:06.808Z,99333.00
2022-12-18T18:31:35.516Z,99341.59
2022-12-18T18:34:07.516Z,99336.56
2022-12-18T18:36:34.801Z,99347.72
2022-12-18T18:39:02.376Z,99340.97
2022-12-18T18:41:30.566Z,99340.19
2022-12-18T18:43:58.870Z,99349.66
2022-12-18T18:46:26.113Z,99348.00
2022-12-18T18:48:53.245Z,99346.34
2022-12-18T18:51:21.547Z,99335.28
2022-12-18T18:53:50.282Z,99317.31
2022-12-18T18:56:56.197Z,99325.09
2022-12-18T18:59:06.076Z,99321.66
2022-12-18T19:01:33.165Z,99311.53
2022-12-18T19:04:04.338Z,99309.00
2022-12-18T19:06:31.336Z,99297.00
2022-12-18T19:09:01.810Z,99296.22
2022-12-18T19:11:48.620Z,99285.13
2022-12-18T19:14:15.869Z,99272.38
2022-12-18T19:16:45.447Z,99270.72
2022-12-18T19:19:13.078Z,99269.88
2022-12-18T19:21:40.070Z,99265.63
2022-12-18T19:24:07.016Z,99260.53
2022-12-18T19:26:33.665Z,99265.66
2022-12-18T19:29:02.201Z,99257.19
2022-12-18T19:31:34.873Z,99252.03
2022-12-18T19:34:02.798Z,99252.09
2022-12-18T19:36:31.118Z,99236.72
2022-12-18T19:39:00.394Z,99235.88
2022-12-18T19:41:32.812Z,99228.22
2022-12-18T19:44:00.414Z,99231.66
2022-12-18T19:46:34.792Z,99247.06
2022-12-18T19:49:01.497Z,99230.00
2022-12-18T19:51:29.800Z,99230.00
2022-12-18T19:53:59.281Z,99236.84
2022-12-18T19:56:29.445Z,99233.47
2022-12-18T19:58:56.459Z,99213.81
2022-12-18T20:01:24.995Z,99206.16
2022-12-18T20:03:53.710Z,99202.72
2022-12-18T20:09:05.097Z,99206.19
2022-12-18T20:11:33.292Z,99201.06
2022-12-18T20:14:03.760Z,99203.66
2022-12-18T20:16:31.019Z,99200.25
2022-12-18T20:18:58.308Z,99204.53
2022-12-18T20:21:25.362Z,99220.84
2022-12-18T20:23:52.235Z,99213.13
2022-12-18T20:26:19.416Z,99214.88
2022-12-18T20:28:46.238Z,99209.75
2022-12-18T20:31:13.682Z,99208.06
2022-12-18T20:33:42.035Z,99212.38
2022-12-18T20:36:14.210Z,99197.81
2022-12-18T20:38:43.061Z,99199.53
2022-12-18T20:41:16.411Z,99199.56
2022-12-18T20:43:44.309Z,99201.31
2022-12-18T20:46:13.675Z,99204.72
2022-12-18T20:48:40.881Z,99199.63
2022-12-18T20:51:10.609Z,99201.34
2022-12-18T20:53:37.408Z,99201.31
2022-12-18T20:56:08.803Z,99185.91
2022-12-18T20:58:36.135Z,99182.47
2022-12-18T21:03:42.730Z,99180.75
2022-12-18T21:06:10.532Z,99161.03
2022-12-18T21:08:37.867Z,99172.19
2022-12-18T21:11:35.861Z,99173.06
2022-12-18T21:14:03.905Z,99151.59
2022-12-18T21:16:30.630Z,99162.72
2022-12-18T21:18:57.568Z,99153.31
2022-12-18T21:21:26.878Z,99151.56
2022-12-18T21:23:53.973Z,99150.75
2022-12-18T21:29:00.939Z,99148.06
2022-12-18T21:31:30.387Z,99159.25
2022-12-18T21:33:58.368Z,99161.81
2022-12-18T21:36:28.848Z,99150.69
2022-12-18T21:38:56.481Z,99155.81
2022-12-18T21:41:44.003Z,99144.66
2022-12-18T21:44:14.039Z,99131.78
2022-12-18T21:46:44.661Z,99115.47
2022-12-18T21:49:14.520Z,99117.22
2022-12-18T21:51:41.501Z,99107.75
2022-12-18T21:54:08.319Z,99108.59
2022-12-18T21:59:22.932Z,99104.28
2022-12-18T22:01:51.058Z,99090.53
2022-12-18T22:04:18.703Z,99098.22
2022-12-18T22:06:46.560Z,99091.34
2022-12-18T22:09:16.043Z,99080.16
2022-12-18T22:11:42.972Z,99090.44
2022-12-18T22:14:10.009Z,99085.28
2022-12-18T22:16:36.840Z,99086.13
2022-12-18T22:19:04.888Z,99073.22
2022-12-18T22:21:34.471Z,99068.94
2022-12-18T22:24:05.088Z,99057.78
2022-12-18T22:26:39.507Z,99075.72
2022-12-18T22:29:26.734Z,99070.56
2022-12-18T22:31:53.263Z,99059.38
2022-12-18T22:34:22.985Z,99074.84
2022-12-18T22:36:50.238Z,99061.06
2022-12-18T22:39:22.478Z,99039.63
2022-12-18T22:41:49.500Z,99060.16
2022-12-18T22:44:17.544Z,99049.84
2022-12-18T22:46:48.753Z,99045.50
2022-12-18T22:49:24.681Z,99064.41
2022-12-18T22:51:52.637Z,99031.78
2022-12-18T22:54:19.490Z,99049.75
2022-12-18T22:56:46.081Z,99037.66
2022-12-18T22:59:18.905Z,99040.25
2022-12-18T23:01:47.027Z,99043.72
2022-12-18T23:04:15.102Z,99031.66
2022-12-18T23:06:42.808Z,99048.81
2022-12-18T23:09:15.968Z,99049.63
2022-12-18T23:11:42.732Z,99027.31
2022-12-18T23:14:09.298Z,99050.47
2022-12-18T23:16:35.917Z,99039.25
2022-12-18T23:19:03.610Z,99040.09
2022-12-18T23:21:30.329Z,99035.75
2022-12-18T23:23:57.335Z,99033.13
2022-12-18T23:26:26.066Z,99035.69
2022-12-18T23:28:53.553Z,99028.72
2022-12-18T23:31:23.819Z,99010.69
2022-12-18T23:33:51.170Z,99021.88
2022-12-18T23:36:19.368Z,99020.94
2022-12-18T23:38:51.564Z,99014.91
2022-12-18T23:41:20.010Z,99009.69
2022-12-18T23:43:46.812Z,99019.97
2022-12-18T23:46:25.490Z,99023.41
2022-12-18T23:48:52.238Z,99012.16
2022-12-18T23:51:20.688Z,99017.25
2022-12-18T23:53:47.229Z,99005.22
2022-12-18T23:56:14.682Z,99009.47
2022-12-18T23:58:42.889Z,99010.25
